createdAt,value
2023-04-17T00:02:25.662Z,3.40
2023-04-17T00:04:55.238Z,3.07
2023-04-17T00:07:24.216Z,2.97
2023-04-17T00:09:52.419Z,3.20
2023-04-17T00:12:22.089Z,4.10
2023-04-17T00:14:50.285Z,3.10
2023-04-17T00:20:07.850Z,3.00
2023-04-17T00:22:37.055Z,3.03
2023-04-17T00:25:05.947Z,2.87
2023-04-17T00:27:38.668Z,2.57
2023-04-17T00:30:08.179Z,2.80
2023-04-17T00:32:36.982Z,2.60
2023-04-17T00:35:05.697Z,2.70
2023-04-17T00:37:35.654Z,2.60
2023-04-17T00:40:04.252Z,2.90
2023-04-17T00:42:32.683Z,2.60
2023-04-17T00:45:02.999Z,2.90
2023-04-17T00:47:31.785Z,2.87
2023-04-17T00:50:00.232Z,3.17
2023-04-17T00:52:30.384Z,2.80
2023-04-17T00:55:00.814Z,2.20
2023-04-17T00:57:30.092Z,2.77
2023-04-17T00:59:58.913Z,2.63
2023-04-17T01:02:28.852Z,2.83
2023-04-17T01:04:57.299Z,2.80
2023-04-17T01:07:26.283Z,2.57
2023-04-17T01:09:55.261Z,2.30
2023-04-17T01:12:25.030Z,2.57
2023-04-17T01:14:54.025Z,2.50
2023-04-17T01:17:22.997Z,2.20
2023-04-17T01:19:52.762Z,2.73
2023-04-17T01:22:21.575Z,2.50
2023-04-17T01:24:55.324Z,2.50
2023-04-17T01:27:25.155Z,2.70
2023-04-17T01:29:53.199Z,2.30
2023-04-17T01:32:21.764Z,2.30
2023-04-17T01:34:51.104Z,2.27
2023-04-17T01:37:19.984Z,2.30
2023-04-17T01:39:48.581Z,2.60
2023-04-17T01:42:18.105Z,2.27
2023-04-17T01:44:46.360Z,2.50
2023-04-17T01:47:14.715Z,2.50
2023-04-17T01:49:42.786Z,2.10
2023-04-17T01:52:11.012Z,2.10
2023-04-17T01:54:39.413Z,2.90
2023-04-17T01:57:07.764Z,2.03
2023-04-17T01:59:37.264Z,2.33
2023-04-17T02:02:05.870Z,2.40
2023-04-17T02:04:36.186Z,2.37
2023-04-17T02:07:04.348Z,2.63
2023-04-17T02:09:32.952Z,2.67
2023-04-17T02:12:01.752Z,2.90
2023-04-17T02:14:31.755Z,2.90
2023-04-17T02:17:01.561Z,2.90
2023-04-17T02:19:34.091Z,3.40
2023-04-17T02:22:04.347Z,3.63
2023-04-17T02:24:32.778Z,3.20
2023-04-17T02:27:02.759Z,3.30
2023-04-17T02:29:31.178Z,4.97
2023-04-17T02:32:00.696Z,4.30
2023-04-17T02:34:29.099Z,5.60
2023-04-17T02:36:59.326Z,4.20
2023-04-17T02:39:27.505Z,3.70
2023-04-17T02:41:55.809Z,5.60
2023-04-17T02:44:23.836Z,3.93
2023-04-17T02:46:52.034Z,5.20
2023-04-17T02:49:21.485Z,4.57
2023-04-17T02:51:49.565Z,3.97
2023-04-17T02:54:17.858Z,4.57
2023-04-17T02:56:46.556Z,6.03
2023-04-17T02:59:15.046Z,6.13
2023-04-17T03:01:45.814Z,5.40
2023-04-17T03:04:15.684Z,5.17
2023-04-17T03:06:45.381Z,5.20
2023-04-17T03:09:15.567Z,7.00
2023-04-17T03:11:43.647Z,6.00
2023-04-17T03:14:11.640Z,5.90
2023-04-17T03:16:39.743Z,5.07
2023-04-17T03:19:07.845Z,6.30
2023-04-17T03:21:36.301Z,8.30
2023-04-17T03:24:06.699Z,6.50
2023-04-17T03:26:34.838Z,5.70
2023-04-17T03:29:07.953Z,5.90
2023-04-17T03:31:36.026Z,5.17
2023-04-17T03:34:04.353Z,5.60
2023-04-17T03:36:32.613Z,6.30
2023-04-17T03:39:00.666Z,6.70
2023-04-17T03:41:30.143Z,7.07
2023-04-17T03:43:58.588Z,6.70
2023-04-17T03:46:26.857Z,6.80
2023-04-17T03:48:55.747Z,6.50
2023-04-17T03:51:24.694Z,11.80
2023-04-17T03:53:55.301Z,12.60
2023-04-17T03:56:24.810Z,14.23
2023-04-17T03:58:55.875Z,17.30
2023-04-17T04:01:28.563Z,8.93
2023-04-17T04:04:19.353Z,14.67
2023-04-17T04:06:49.510Z,14.77
2023-04-17T04:09:21.056Z,15.73
2023-04-17T04:11:49.225Z,16.00
2023-04-17T04:14:18.727Z,16.23
2023-04-17T04:16:49.409Z,14.70
2023-04-17T04:19:17.488Z,16.10
2023-04-17T04:21:46.180Z,16.90
2023-04-17T04:24:15.768Z,21.90
2023-04-17T04:26:47.465Z,19.03
2023-04-17T04:29:15.672Z,21.33
2023-04-17T04:31:51.816Z,21.63
2023-04-17T04:34:25.893Z,21.00
2023-04-17T04:36:54.218Z,23.20
2023-04-17T04:39:33.660Z,25.33
2023-04-17T04:42:06.293Z,20.00
2023-04-17T04:44:48.539Z,24.77
2023-04-17T04:47:20.443Z,27.63
2023-04-17T04:49:50.996Z,25.97
2023-04-17T04:52:22.049Z,24.40
2023-04-17T04:54:52.513Z,23.57
2023-04-17T04:57:21.076Z,37.43
2023-04-17T04:59:53.173Z,40.03
2023-04-17T05:02:49.632Z,33.43
2023-04-17T05:05:21.953Z,24.03
2023-04-17T05:07:50.157Z,32.87
2023-04-17T05:10:19.314Z,32.27
2023-04-17T05:12:52.188Z,16.57
2023-04-17T05:15:20.526Z,14.67
2023-04-17T05:17:50.736Z,16.60
2023-04-17T05:20:19.330Z,15.20
2023-04-17T05:22:51.928Z,20.20
2023-04-17T05:25:20.872Z,14.33
2023-04-17T05:27:49.136Z,17.90
2023-04-17T05:30:18.184Z,28.37
2023-04-17T05:32:51.950Z,21.90
2023-04-17T05:35:44.015Z,25.13
2023-04-17T05:38:12.044Z,20.57
2023-04-17T05:40:40.250Z,23.97
2023-04-17T05:43:09.391Z,18.17
2023-04-17T05:45:38.317Z,16.97
2023-04-17T05:48:11.793Z,18.53
2023-04-17T05:50:40.181Z,22.40
2023-04-17T05:53:09.287Z,15.50
2023-04-17T05:55:44.481Z,16.93
2023-04-17T06:00:47.580Z,24.33
2023-04-17T06:03:19.919Z,15.53
2023-04-17T06:05:53.167Z,15.40
2023-04-17T06:08:21.571Z,14.73
2023-04-17T06:10:50.780Z,14.87
2023-04-17T06:13:19.109Z,15.27
2023-04-17T06:15:51.412Z,11.97
2023-04-17T06:18:21.255Z,11.57
2023-04-17T06:20:49.407Z,13.17
2023-04-17T06:23:17.416Z,15.17
2023-04-17T06:25:45.697Z,14.63
2023-04-17T06:28:13.968Z,25.67
2023-04-17T06:30:42.119Z,32.10
2023-04-17T06:33:10.455Z,43.83
2023-04-17T06:35:40.896Z,97.90
2023-04-17T06:38:20.017Z,18.60
2023-04-17T06:40:48.946Z,21.27
2023-04-17T06:43:18.304Z,42.13
2023-04-17T06:45:46.513Z,15.63
2023-04-17T06:48:14.601Z,33.37
2023-04-17T06:50:44.003Z,21.87
2023-04-17T06:53:14.269Z,20.40
2023-04-17T06:55:42.289Z,30.93
2023-04-17T06:58:10.447Z,15.23
2023-04-17T07:00:38.550Z,17.07
2023-04-17T07:03:06.990Z,19.53
2023-04-17T07:05:35.300Z,24.07
2023-04-17T07:08:04.933Z,18.80
2023-04-17T07:10:32.975Z,16.87
2023-04-17T07:13:01.826Z,20.23
2023-04-17T07:15:31.276Z,21.73
2023-04-17T07:18:00.545Z,20.27
2023-04-17T07:20:28.790Z,19.90
2023-04-17T07:22:57.344Z,16.83
2023-04-17T07:25:27.125Z,20.73
2023-04-17T07:27:56.926Z,16.27
2023-04-17T07:30:25.315Z,22.57
2023-04-17T07:32:53.593Z,18.90
2023-04-17T07:35:23.754Z,19.10
2023-04-17T07:37:51.956Z,18.23
2023-04-17T07:40:20.218Z,16.60
2023-04-17T07:42:49.587Z,20.37
2023-04-17T07:45:17.990Z,19.00
2023-04-17T07:47:47.538Z,21.23
2023-04-17T07:50:15.873Z,20.93
2023-04-17T07:52:43.967Z,20.80
2023-04-17T07:55:12.032Z,16.37
2023-04-17T07:57:42.878Z,19.30
2023-04-17T08:00:14.818Z,17.43
2023-04-17T08:02:43.834Z,20.73
2023-04-17T08:05:12.484Z,15.00
2023-04-17T08:07:41.210Z,18.37
2023-04-17T08:10:10.195Z,15.63
2023-04-17T08:12:38.542Z,16.50
2023-04-17T08:15:07.570Z,16.00
2023-04-17T08:17:37.084Z,15.70
2023-04-17T08:20:11.227Z,17.67
2023-04-17T08:22:43.392Z,20.60
2023-04-17T08:25:12.429Z,18.23
2023-04-17T08:27:42.023Z,17.90
2023-04-17T08:30:13.732Z,14.03
2023-04-17T08:32:45.998Z,16.63
2023-04-17T08:35:15.830Z,17.00
2023-04-17T08:37:46.703Z,16.67
2023-04-17T08:40:17.027Z,20.60
2023-04-17T08:42:47.718Z,21.57
2023-04-17T08:45:16.138Z,19.87
2023-04-17T08:47:45.656Z,25.50
2023-04-17T08:50:15.757Z,24.77
2023-04-17T08:52:45.260Z,27.20
2023-04-17T08:55:15.065Z,25.03
2023-04-17T08:57:57.113Z,26.00
2023-04-17T09:00:27.199Z,24.60
2023-04-17T09:02:58.170Z,20.87
2023-04-17T09:05:30.155Z,24.47
2023-04-17T09:08:12.649Z,25.20
2023-04-17T09:10:42.442Z,24.10
2023-04-17T09:13:12.289Z,22.93
2023-04-17T09:15:40.397Z,22.10
2023-04-17T09:18:25.875Z,27.27
2023-04-17T09:20:54.137Z,18.57
2023-04-17T09:23:22.832Z,19.73
2023-04-17T09:26:07.441Z,20.67
2023-04-17T09:28:36.839Z,20.10
2023-04-17T09:31:06.568Z,20.83
2023-04-17T09:33:36.022Z,22.43
2023-04-17T09:36:22.862Z,23.87
2023-04-17T09:38:51.588Z,24.40
2023-04-17T09:41:27.117Z,27.83
2023-04-17T09:43:56.026Z,23.83
2023-04-17T09:46:39.117Z,25.67
2023-04-17T09:49:12.142Z,23.27
2023-04-17T09:51:40.799Z,22.20
2023-04-17T09:54:12.249Z,22.13
2023-04-17T09:56:41.200Z,27.20
2023-04-17T09:59:09.885Z,23.67
2023-04-17T10:01:40.818Z,18.97
2023-04-17T10:04:10.733Z,20.20
2023-04-17T10:06:39.077Z,20.53
2023-04-17T10:09:07.960Z,23.20
2023-04-17T10:11:39.292Z,18.53
2023-04-17T10:14:14.572Z,23.17
2023-04-17T10:16:43.768Z,20.43
2023-04-17T10:19:32.874Z,19.93
2023-04-17T10:22:34.064Z,23.23
2023-04-17T10:25:22.180Z,19.60
2023-04-17T10:27:58.315Z,19.93
2023-04-17T10:30:47.420Z,21.63
2023-04-17T10:33:28.499Z,21.10
2023-04-17T10:35:57.904Z,23.10
2023-04-17T10:38:38.571Z,20.30
2023-04-17T10:41:11.119Z,22.30
2023-04-17T10:43:45.138Z,20.20
2023-04-17T10:46:14.268Z,17.60
2023-04-17T10:48:49.411Z,18.10
2023-04-17T10:51:44.568Z,20.27
2023-04-17T10:54:15.387Z,20.90
2023-04-17T10:56:48.323Z,21.40
2023-04-17T10:59:17.350Z,16.87
2023-04-17T11:02:01.506Z,24.57
2023-04-17T11:04:31.902Z,22.20
2023-04-17T11:07:01.875Z,17.33
2023-04-17T11:09:30.848Z,18.87
2023-04-17T11:12:01.505Z,24.87
2023-04-17T11:14:30.386Z,20.37
2023-04-17T11:16:58.623Z,25.13
2023-04-17T11:19:27.097Z,21.50
2023-04-17T11:21:58.651Z,20.43
2023-04-17T11:24:29.547Z,22.23
2023-04-17T11:26:59.573Z,18.83
2023-04-17T11:29:28.161Z,21.57
2023-04-17T11:31:57.386Z,20.03
2023-04-17T11:34:27.114Z,23.27
2023-04-17T11:36:57.402Z,19.60
2023-04-17T11:39:29.682Z,19.63
2023-04-17T11:41:58.016Z,18.00
2023-04-17T11:44:26.941Z,18.37
2023-04-17T11:46:56.341Z,18.93
2023-04-17T11:49:28.203Z,19.03
2023-04-17T11:52:00.123Z,16.37
2023-04-17T11:54:30.200Z,21.40
2023-04-17T11:57:02.458Z,17.67
2023-04-17T11:59:32.632Z,18.60
2023-04-17T12:02:02.039Z,18.70
2023-04-17T12:04:33.897Z,16.63
2023-04-17T12:07:02.763Z,16.20
2023-04-17T12:09:32.683Z,18.07
2023-04-17T12:12:01.316Z,15.70
2023-04-17T12:14:29.504Z,18.13
2023-04-17T12:16:57.481Z,16.97
2023-04-17T12:19:27.239Z,17.90
2023-04-17T12:21:55.682Z,14.30
2023-04-17T12:24:24.972Z,16.73
2023-04-17T12:26:54.840Z,15.50
2023-04-17T12:29:36.158Z,15.10
2023-04-17T12:32:11.392Z,14.40
2023-04-17T12:34:39.541Z,15.27
2023-04-17T12:37:07.634Z,15.60
2023-04-17T12:39:35.745Z,14.63
2023-04-17T12:42:05.599Z,15.13
2023-04-17T12:44:33.704Z,17.77
2023-04-17T12:47:01.771Z,13.93
2023-04-17T12:49:29.825Z,14.40
2023-04-17T12:51:58.091Z,13.07
2023-04-17T12:54:26.582Z,13.53
2023-04-17T12:56:55.917Z,12.77
2023-04-17T12:59:25.307Z,13.30
2023-04-17T13:01:53.371Z,13.33
2023-04-17T13:04:21.743Z,11.73
2023-04-17T13:06:50.043Z,11.77
2023-04-17T13:09:18.093Z,13.07
2023-04-17T13:11:46.519Z,13.87
2023-04-17T13:14:15.271Z,11.93
2023-04-17T13:16:45.618Z,11.70
2023-04-17T13:19:13.988Z,10.80
2023-04-17T13:21:42.260Z,10.63
2023-04-17T13:24:14.457Z,10.77
2023-04-17T13:26:43.055Z,10.20
2023-04-17T13:29:11.507Z,11.50
2023-04-17T13:31:39.793Z,9.60
2023-04-17T13:34:10.836Z,9.50
2023-04-17T13:36:38.955Z,9.97
2023-04-17T13:39:07.204Z,9.30
2023-04-17T13:41:35.456Z,11.23
2023-04-17T13:44:03.612Z,10.13
2023-04-17T13:46:32.973Z,9.90
2023-04-17T13:49:01.087Z,10.80
2023-04-17T13:51:31.989Z,10.70
2023-04-17T13:54:00.112Z,9.60
2023-04-17T13:56:28.490Z,10.70
2023-04-17T13:58:57.473Z,9.87
2023-04-17T14:01:25.614Z,8.70
2023-04-17T14:03:54.067Z,10.40
2023-04-17T14:06:22.280Z,8.57
2023-04-17T14:08:51.648Z,8.97
2023-04-17T14:11:19.680Z,9.03
2023-04-17T14:13:47.742Z,8.20
2023-04-17T14:16:16.127Z,8.93
2023-04-17T14:18:44.280Z,9.63
2023-04-17T14:21:12.357Z,9.90
2023-04-17T14:23:40.378Z,9.70
2023-04-17T14:26:10.014Z,10.00
2023-04-17T14:28:38.406Z,9.83
2023-04-17T14:31:06.716Z,9.03
2023-04-17T14:33:34.854Z,9.77
2023-04-17T14:36:05.206Z,8.67
2023-04-17T14:38:34.602Z,9.00
2023-04-17T14:41:02.653Z,8.37
2023-04-17T14:43:32.099Z,9.43
2023-04-17T14:46:00.189Z,9.10
2023-04-17T14:48:29.742Z,9.13
2023-04-17T14:50:59.917Z,8.50
2023-04-17T14:53:27.953Z,9.20
2023-04-17T14:55:56.122Z,9.20
2023-04-17T14:58:24.132Z,7.40
2023-04-17T15:00:53.528Z,9.20
2023-04-17T15:03:21.708Z,8.93
2023-04-17T15:05:50.117Z,7.40
2023-04-17T15:08:18.094Z,7.90
2023-04-17T15:10:51.323Z,8.57
2023-04-17T15:13:19.947Z,8.03
2023-04-17T15:15:48.028Z,8.00
2023-04-17T15:18:17.455Z,8.87
2023-04-17T15:20:46.239Z,7.97
2023-04-17T15:23:15.620Z,8.63
2023-04-17T15:25:43.717Z,6.80
2023-04-17T15:28:12.374Z,7.80
2023-04-17T15:30:40.452Z,7.00
2023-04-17T15:33:10.251Z,8.33
2023-04-17T15:35:39.994Z,7.60
2023-04-17T15:38:08.409Z,7.30
2023-04-17T15:40:36.417Z,7.23
2023-04-17T15:43:04.505Z,8.40
2023-04-17T15:45:32.507Z,7.07
2023-04-17T15:48:01.678Z,8.07
2023-04-17T15:50:30.234Z,7.70
2023-04-17T15:52:59.621Z,9.20
2023-04-17T15:55:27.686Z,8.67
2023-04-17T15:57:56.116Z,9.93
2023-04-17T16:00:24.209Z,10.20
2023-04-17T16:02:52.924Z,8.77
2023-04-17T16:05:21.399Z,8.40
2023-04-17T16:07:49.500Z,9.80
2023-04-17T16:10:19.367Z,7.77
2023-04-17T16:12:47.836Z,9.57
2023-04-17T16:15:17.055Z,9.07
2023-04-17T16:17:48.380Z,9.30
2023-04-17T16:20:16.844Z,8.43
2023-04-17T16:22:45.045Z,6.23
2023-04-17T16:25:13.139Z,8.73
2023-04-17T16:27:42.567Z,8.07
2023-04-17T16:30:11.535Z,7.63
2023-04-17T16:32:39.736Z,10.57
2023-04-17T16:35:08.581Z,10.03
2023-04-17T16:37:36.716Z,10.17
2023-04-17T16:40:05.807Z,9.77
2023-04-17T16:42:34.043Z,8.80
2023-04-17T16:45:03.873Z,8.67
2023-04-17T16:47:32.885Z,8.80
2023-04-17T16:50:01.054Z,8.60
2023-04-17T16:52:29.582Z,7.67
2023-04-17T16:54:57.779Z,8.77
2023-04-17T16:57:26.046Z,9.40
2023-04-17T16:59:54.188Z,10.37
2023-04-17T17:02:23.825Z,10.73
2023-04-17T17:04:52.116Z,9.10
2023-04-17T17:07:20.458Z,9.50
2023-04-17T17:09:48.816Z,9.30
2023-04-17T17:12:16.816Z,9.50
2023-04-17T17:14:45.040Z,10.30
2023-04-17T17:17:13.114Z,10.90
2023-04-17T17:19:42.524Z,10.80
2023-04-17T17:22:10.739Z,10.80
2023-04-17T17:24:39.727Z,9.00
2023-04-17T17:27:07.711Z,9.57
2023-04-17T17:29:35.743Z,10.10
2023-04-17T17:32:03.844Z,9.50
2023-04-17T17:34:32.528Z,8.63
2023-04-17T17:37:02.074Z,10.10
2023-04-17T17:39:30.161Z,9.10
2023-04-17T17:41:58.206Z,10.90
2023-04-17T17:44:26.207Z,11.47
2023-04-17T17:46:54.314Z,13.50
2023-04-17T17:49:22.284Z,25.43
2023-04-17T17:51:50.315Z,10.30
2023-04-17T17:54:19.893Z,9.23
2023-04-17T17:56:48.029Z,7.73
2023-04-17T17:59:16.110Z,9.03
2023-04-17T18:01:44.217Z,8.23
2023-04-17T18:04:12.702Z,8.97
2023-04-17T18:06:41.174Z,8.63
2023-04-17T18:09:09.163Z,14.43
2023-04-17T18:11:39.318Z,20.50
2023-04-17T18:14:07.659Z,17.73
2023-04-17T18:16:37.101Z,15.70
2023-04-17T18:19:05.178Z,21.00
2023-04-17T18:21:33.775Z,25.30
2023-04-17T18:24:02.822Z,31.90
2023-04-17T18:26:30.943Z,36.67
2023-04-17T18:29:00.386Z,27.50
2023-04-17T18:31:28.530Z,24.43
2023-04-17T18:33:56.641Z,18.40
2023-04-17T18:36:24.663Z,13.70
2023-04-17T18:38:52.826Z,11.10
2023-04-17T18:41:21.467Z,9.83
2023-04-17T18:43:49.492Z,9.70
2023-04-17T18:46:19.177Z,10.93
2023-04-17T18:48:47.217Z,9.90
2023-04-17T18:51:15.634Z,9.50
2023-04-17T18:53:43.761Z,9.53
2023-04-17T18:56:13.746Z,9.27
2023-04-17T18:58:41.859Z,7.83
2023-04-17T19:01:10.623Z,8.50
2023-04-17T19:03:40.735Z,8.43
2023-04-17T19:06:08.804Z,8.00
2023-04-17T19:08:39.413Z,10.23
2023-04-17T19:11:08.620Z,9.00
2023-04-17T19:13:36.751Z,9.07
2023-04-17T19:16:04.836Z,8.90
2023-04-17T19:18:33.026Z,8.80
2023-04-17T19:21:02.872Z,8.50
2023-04-17T19:23:31.129Z,9.50
2023-04-17T19:25:59.312Z,10.40
2023-04-17T19:28:28.432Z,10.40
2023-04-17T19:30:57.808Z,10.73
2023-04-17T19:33:25.895Z,11.27
2023-04-17T19:35:54.065Z,9.67
2023-04-17T19:38:23.529Z,10.60
2023-04-17T19:41:14.714Z,10.03
2023-04-17T19:43:43.100Z,9.93
2023-04-17T19:46:11.298Z,10.33
2023-04-17T19:48:39.536Z,10.93
2023-04-17T19:51:08.091Z,12.03
2023-04-17T19:53:38.460Z,11.10
2023-04-17T19:56:08.622Z,11.97
2023-04-17T19:58:37.226Z,11.97
2023-04-17T20:01:05.626Z,12.77
2023-04-17T20:03:34.168Z,13.00
2023-04-17T20:06:03.420Z,12.70
2023-04-17T20:08:31.577Z,11.30
2023-04-17T20:11:01.267Z,12.40
2023-04-17T20:13:29.281Z,10.43
2023-04-17T20:15:57.333Z,16.80
2023-04-17T20:18:25.593Z,11.07
2023-04-17T20:20:53.790Z,12.10
2023-04-17T20:23:21.789Z,12.30
2023-04-17T20:25:50.509Z,12.77
2023-04-17T20:28:20.026Z,12.63
2023-04-17T20:30:48.234Z,13.73
2023-04-17T20:33:16.417Z,13.73
2023-04-17T20:35:44.542Z,13.87
2023-04-17T20:38:12.769Z,12.90
2023-04-17T20:40:40.887Z,11.50
2023-04-17T20:43:08.922Z,13.80
2023-04-17T20:45:38.565Z,14.27
2023-04-17T20:48:06.776Z,13.50
2023-04-17T20:50:34.992Z,13.30
2023-04-17T20:53:03.093Z,12.90
2023-04-17T20:55:31.176Z,13.83
2023-04-17T20:57:59.241Z,14.13
2023-04-17T21:00:27.470Z,14.83
2023-04-17T21:02:56.966Z,13.60
2023-04-17T21:05:25.236Z,16.37
2023-04-17T21:07:54.321Z,15.00
2023-04-17T21:10:22.315Z,15.00
2023-04-17T21:12:50.425Z,15.70
2023-04-17T21:15:18.718Z,12.53
2023-04-17T21:17:47.749Z,13.20
2023-04-17T21:20:17.488Z,14.57
2023-04-17T21:22:45.630Z,18.27
2023-04-17T21:25:13.657Z,13.53
2023-04-17T21:27:43.681Z,12.63
2023-04-17T21:30:12.154Z,13.20
2023-04-17T21:32:40.760Z,11.87
2023-04-17T21:35:09.974Z,9.50
2023-04-17T21:37:39.468Z,11.87
2023-04-17T21:40:08.703Z,11.20
2023-04-17T21:42:37.107Z,11.40
2023-04-17T21:45:05.833Z,9.60
2023-04-17T21:47:34.940Z,9.03
2023-04-17T21:50:03.171Z,9.57
2023-04-17T21:52:31.242Z,8.60
2023-04-17T21:55:07.283Z,8.83
2023-04-17T21:57:37.472Z,8.40
2023-04-17T22:00:09.884Z,7.90
2023-04-17T22:02:38.138Z,7.77
2023-04-17T22:05:06.845Z,7.60
2023-04-17T22:07:44.002Z,7.57
2023-04-17T22:10:21.147Z,8.37
2023-04-17T22:12:49.212Z,9.50
2023-04-17T22:15:17.413Z,7.10
2023-04-17T22:17:45.598Z,7.97
2023-04-17T22:20:14.131Z,8.63
2023-04-17T22:22:42.283Z,7.73
2023-04-17T22:25:10.832Z,7.13
2023-04-17T22:27:40.598Z,8.27
2023-04-17T22:30:09.346Z,8.07
2023-04-17T22:32:37.749Z,7.60
2023-04-17T22:35:06.593Z,7.47
2023-04-17T22:37:34.697Z,7.10
2023-04-17T22:40:02.734Z,6.90
2023-04-17T22:42:30.772Z,8.13
2023-04-17T22:45:00.526Z,7.30
2023-04-17T22:47:28.629Z,7.73
2023-04-17T22:49:57.640Z,7.03
2023-04-17T22:52:25.675Z,7.60
2023-04-17T22:54:54.495Z,7.57
2023-04-17T22:57:22.546Z,8.57
2023-04-17T22:59:50.642Z,8.23
2023-04-17T23:02:20.036Z,6.63
2023-04-17T23:04:48.209Z,8.47
2023-04-17T23:07:16.310Z,8.70
2023-04-17T23:09:44.826Z,8.30
2023-04-17T23:12:12.822Z,9.90
2023-04-17T23:14:41.012Z,7.47
2023-04-17T23:17:12.149Z,6.80
2023-04-17T23:19:41.616Z,9.07
2023-04-17T23:22:10.774Z,7.40
2023-04-17T23:24:38.972Z,9.10
2023-04-17T23:27:07.057Z,9.40
2023-04-17T23:29:35.170Z,9.80
2023-04-17T23:32:04.476Z,7.50
2023-04-17T23:34:32.525Z,9.33
2023-04-17T23:37:02.516Z,12.10
2023-04-17T23:39:30.758Z,8.90
2023-04-17T23:42:00.488Z,10.27
2023-04-17T23:44:28.694Z,9.23
2023-04-17T23:46:56.918Z,11.20
2023-04-17T23:49:25.029Z,10.60
2023-04-17T23:51:53.266Z,10.07
2023-04-17T23:54:22.755Z,9.30
2023-04-17T23:56:50.873Z,10.60
2023-04-17T23:59:19.162Z,10.97
